createdAt,value
2023-01-03T00:00:26.179Z,102420.28
2023-01-03T00:02:53.267Z,102426.06
2023-01-03T00:05:20.763Z,102430.31
2023-01-03T00:07:47.747Z,102429.06
2023-01-03T00:10:14.813Z,102429.06
2023-01-03T00:12:41.912Z,102434.63
2023-01-03T00:15:09.664Z,102432.50
2023-01-03T00:17:37.995Z,102433.03
2023-01-03T00:20:06.783Z,102417.34
2023-01-03T00:22:33.845Z,102424.25
2023-01-03T00:25:01.121Z,102428.72
2023-01-03T00:27:28.569Z,102427.91
2023-01-03T00:29:55.745Z,102432.81
2023-01-03T00:32:22.763Z,102441.53
2023-01-03T00:34:50.197Z,102438.16
2023-01-03T00:37:17.432Z,102434.06
2023-01-03T00:39:44.522Z,102443.75
2023-01-03T00:42:11.601Z,102434.28
2023-01-03T00:44:38.619Z,102443.28
2023-01-03T00:47:06.761Z,102440.75
2023-01-03T00:49:33.807Z,102439.50
2023-01-03T00:52:00.793Z,102445.75
2023-01-03T00:54:27.865Z,102446.75
2023-01-03T00:56:54.917Z,102452.09
2023-01-03T00:59:22.903Z,102454.88
2023-01-03T01:01:53.970Z,102459.44
2023-01-03T01:04:26.912Z,102460.56
2023-01-03T01:06:59.899Z,102470.25
2023-01-03T01:09:33.201Z,102466.16
2023-01-03T01:12:00.357Z,102462.94
2023-01-03T01:14:29.146Z,102460.56
2023-01-03T01:17:02.599Z,102470.72
2023-01-03T01:19:36.788Z,102464.06
2023-01-03T01:22:04.214Z,102469.16
2023-01-03T01:24:31.872Z,102467.63
2023-01-03T01:26:59.056Z,102474.50
2023-01-03T01:29:26.406Z,102457.69
2023-01-03T01:31:53.566Z,102464.47
2023-01-03T01:34:20.599Z,102477.28
2023-01-03T01:36:47.851Z,102468.25
2023-01-03T01:39:27.055Z,102470.59
2023-01-03T01:42:19.655Z,102467.59
2023-01-03T01:45:06.813Z,102477.03
2023-01-03T01:47:54.567Z,102481.16
2023-01-03T01:50:47.518Z,102487.59
2023-01-03T01:53:18.205Z,102486.25
2023-01-03T01:56:03.765Z,102490.47
2023-01-03T01:58:35.469Z,102483.13
2023-01-03T02:01:06.853Z,102498.47
2023-01-03T02:03:34.018Z,102490.69
2023-01-03T02:06:02.795Z,102491.56
2023-01-03T02:08:29.863Z,102494.69
2023-01-03T02:11:13.755Z,102495.34
2023-01-03T02:14:19.967Z,102485.53
2023-01-03T02:17:11.655Z,102487.38
2023-01-03T02:19:50.466Z,102491.28
2023-01-03T02:22:26.219Z,102494.47
2023-01-03T02:25:19.158Z,102496.69
2023-01-03T02:28:21.705Z,102503.13
2023-01-03T02:31:04.778Z,102499.44
2023-01-03T02:33:37.438Z,102498.53
2023-01-03T02:36:23.104Z,102500.88
2023-01-03T02:39:01.455Z,102504.72
2023-01-03T02:41:51.565Z,102510.06
2023-01-03T02:44:28.031Z,102482.97
2023-01-03T02:47:03.297Z,102509.81
2023-01-03T02:49:34.823Z,102514.41
2023-01-03T02:52:13.783Z,102498.19
2023-01-03T02:54:46.469Z,102503.91
2023-01-03T02:57:17.761Z,102494.97
2023-01-03T03:00:00.664Z,102495.44
2023-01-03T03:02:33.081Z,102492.75
2023-01-03T03:05:05.443Z,102491.13
2023-01-03T03:07:36.860Z,102487.66
2023-01-03T03:10:24.867Z,102488.41
2023-01-03T03:13:13.394Z,102495.44
2023-01-03T03:15:54.939Z,102495.22
2023-01-03T03:18:32.815Z,102497.09
2023-01-03T03:21:20.833Z,102492.00
2023-01-03T03:24:10.276Z,102492.91
2023-01-03T03:26:42.887Z,102499.00
2023-01-03T03:29:16.835Z,102481.41
2023-01-03T03:31:48.436Z,102492.25
2023-01-03T03:34:25.024Z,102494.91
2023-01-03T03:36:58.758Z,102488.47
2023-01-03T03:39:46.243Z,102487.38
2023-01-03T03:42:43.769Z,102484.06
2023-01-03T03:45:18.456Z,102486.84
2023-01-03T03:47:56.076Z,102485.53
2023-01-03T03:50:46.365Z,102486.00
2023-01-03T03:53:16.440Z,102490.69
2023-01-03T03:55:52.256Z,102486.69
2023-01-03T03:58:27.129Z,102483.81
2023-01-03T04:00:55.990Z,102479.59
2023-01-03T04:03:25.111Z,102482.84
2023-01-03T04:06:02.388Z,102478.28
2023-01-03T04:08:29.560Z,102490.66
2023-01-03T04:11:05.588Z,102489.31
2023-01-03T04:13:38.100Z,102484.41
2023-01-03T04:16:07.888Z,102490.78
2023-01-03T04:18:35.137Z,102489.44
2023-01-03T04:21:02.634Z,102502.56
2023-01-03T04:23:29.723Z,102508.81
2023-01-03T04:25:56.697Z,102494.44
2023-01-03T04:28:23.942Z,102500.56
2023-01-03T04:30:50.929Z,102501.47
2023-01-03T04:33:17.986Z,102496.09
2023-01-03T04:35:44.987Z,102498.91
2023-01-03T04:38:12.043Z,102505.13
2023-01-03T04:40:39.084Z,102514.50
2023-01-03T04:43:26.430Z,102497.97
2023-01-03T04:45:53.562Z,102506.13
2023-01-03T04:48:20.631Z,102503.25
2023-01-03T04:50:54.981Z,102505.03
2023-01-03T04:53:23.561Z,102503.44
2023-01-03T04:55:52.227Z,102502.47
2023-01-03T04:58:19.895Z,102508.56
2023-01-03T05:00:47.204Z,102506.81
2023-01-03T05:03:14.520Z,102508.47
2023-01-03T05:05:41.651Z,102510.34
2023-01-03T05:08:11.767Z,102513.38
2023-01-03T05:10:40.027Z,102510.13
2023-01-03T05:13:08.504Z,102508.59
2023-01-03T05:15:38.832Z,102507.56
2023-01-03T05:18:06.934Z,102507.44
2023-01-03T05:20:55.355Z,102507.91
2023-01-03T05:23:41.782Z,102507.91
2023-01-03T05:26:17.494Z,102515.69
2023-01-03T05:28:47.974Z,102514.69
2023-01-03T05:31:15.121Z,102507.91
2023-01-03T05:33:42.230Z,102511.16
2023-01-03T05:36:10.045Z,102515.47
2023-01-03T05:38:38.447Z,102509.47
2023-01-03T05:41:07.429Z,102496.56
2023-01-03T05:43:34.567Z,102486.84
2023-01-03T05:46:01.765Z,102492.22
2023-01-03T05:48:28.921Z,102498.09
2023-01-03T05:50:57.921Z,102473.38
2023-01-03T05:53:25.396Z,102498.97
2023-01-03T05:55:52.914Z,102485.63
2023-01-03T05:58:20.091Z,102497.88
2023-01-03T06:00:47.682Z,102498.53
2023-01-03T06:03:14.918Z,102495.88
2023-01-03T06:05:46.258Z,102505.09
2023-01-03T06:08:16.751Z,102487.63
2023-01-03T06:10:43.818Z,102489.63
2023-01-03T06:13:11.053Z,102484.94
2023-01-03T06:15:38.105Z,102488.94
2023-01-03T06:18:08.435Z,102509.31
2023-01-03T06:20:36.466Z,102504.97
2023-01-03T06:23:03.480Z,102493.53
2023-01-03T06:25:30.464Z,102504.41
2023-01-03T06:27:57.494Z,102498.84
2023-01-03T06:30:24.498Z,102495.94
2023-01-03T06:32:51.595Z,102483.91
2023-01-03T06:35:18.845Z,102494.72
2023-01-03T06:37:45.982Z,102496.03
2023-01-03T06:40:13.151Z,102493.47
2023-01-03T06:42:40.221Z,102483.66
2023-01-03T06:45:27.148Z,102495.22
2023-01-03T06:48:17.516Z,102488.44
2023-01-03T06:51:03.488Z,102479.88
2023-01-03T06:53:34.657Z,102487.56
2023-01-03T06:56:02.846Z,102481.00
2023-01-03T06:58:30.115Z,102490.44
2023-01-03T07:00:59.040Z,102486.59
2023-01-03T07:03:26.120Z,102478.00
2023-01-03T07:05:53.167Z,102473.56
2023-01-03T07:08:20.439Z,102469.56
2023-01-03T07:10:47.568Z,102476.38
2023-01-03T07:13:33.359Z,102493.72
2023-01-03T07:16:00.504Z,102481.69
2023-01-03T07:18:27.694Z,102483.28
2023-01-03T07:20:54.840Z,102486.72
2023-01-03T07:23:21.988Z,102484.41
2023-01-03T07:25:49.082Z,102477.84
2023-01-03T07:28:17.394Z,102478.72
2023-01-03T07:30:45.758Z,102483.94
2023-01-03T07:33:15.168Z,102501.84
2023-01-03T07:35:42.323Z,102491.63
2023-01-03T07:38:11.124Z,102488.94
2023-01-03T07:40:38.780Z,102483.06
2023-01-03T07:43:24.685Z,102494.66
2023-01-03T07:45:51.891Z,102474.94
2023-01-03T07:48:19.014Z,102494.53
2023-01-03T07:50:46.103Z,102470.28
2023-01-03T07:53:16.739Z,102482.50
2023-01-03T07:55:45.393Z,102489.75
2023-01-03T07:58:13.269Z,102491.53
2023-01-03T08:00:40.921Z,102500.34
2023-01-03T08:03:11.259Z,102495.22
2023-01-03T08:05:38.875Z,102496.09
2023-01-03T08:08:07.599Z,102498.78
2023-01-03T08:11:12.941Z,102503.44
2023-01-03T08:13:41.177Z,102504.56
2023-01-03T08:16:12.825Z,102489.19
2023-01-03T08:18:41.647Z,102488.31
2023-01-03T08:21:10.895Z,102492.31
2023-01-03T08:23:39.741Z,102496.34
2023-01-03T08:26:13.549Z,102490.53
2023-01-03T08:28:41.526Z,102488.41
2023-01-03T08:31:12.044Z,102468.16
2023-01-03T08:33:47.154Z,102495.88
2023-01-03T08:36:15.001Z,102498.53
2023-01-03T08:39:00.460Z,102498.53
2023-01-03T08:41:31.741Z,102494.53
2023-01-03T08:44:01.280Z,102479.69
2023-01-03T08:46:30.564Z,102500.19
2023-01-03T08:48:57.664Z,102489.84
2023-01-03T08:51:26.569Z,102507.31
2023-01-03T08:53:54.177Z,102520.13
2023-01-03T08:56:21.561Z,102511.06
2023-01-03T08:58:48.913Z,102522.44
2023-01-03T09:01:16.065Z,102524.44
2023-01-03T09:03:43.536Z,102518.47
2023-01-03T09:06:10.633Z,102514.34
2023-01-03T09:08:38.557Z,102512.88
2023-01-03T09:11:08.982Z,102497.03
2023-01-03T09:13:36.807Z,102495.91
2023-01-03T09:16:07.704Z,102493.97
2023-01-03T09:18:36.650Z,102499.19
2023-01-03T09:21:06.944Z,102509.13
2023-01-03T09:23:35.685Z,102487.91
2023-01-03T09:26:04.267Z,102497.50
2023-01-03T09:28:31.589Z,102501.38
2023-01-03T09:30:58.717Z,102502.38
2023-01-03T09:33:25.943Z,102493.59
2023-01-03T09:35:56.981Z,102496.56
2023-01-03T09:38:24.600Z,102492.31
2023-01-03T09:41:06.734Z,102499.34
2023-01-03T09:43:38.840Z,102507.06
2023-01-03T09:46:07.459Z,102509.72
2023-01-03T09:48:38.070Z,102499.53
2023-01-03T09:51:30.501Z,102495.50
2023-01-03T09:54:16.783Z,102500.94
2023-01-03T09:57:02.729Z,102493.88
2023-01-03T09:59:55.251Z,102490.59
2023-01-03T10:03:03.038Z,102499.63
2023-01-03T10:06:00.984Z,102501.50
2023-01-03T10:08:37.688Z,102499.72
2023-01-03T10:11:12.223Z,102494.88
2023-01-03T10:13:48.454Z,102509.31
2023-01-03T10:16:47.764Z,102491.84
2023-01-03T10:19:47.634Z,102507.94
2023-01-03T10:22:21.879Z,102496.75
2023-01-03T10:24:58.943Z,102482.97
2023-01-03T10:27:33.204Z,102492.63
2023-01-03T10:30:03.010Z,102494.81
2023-01-03T10:32:54.180Z,102490.97
2023-01-03T10:35:27.357Z,102492.53
2023-01-03T10:37:56.131Z,102502.63
2023-01-03T10:40:50.012Z,102499.13
2023-01-03T10:43:33.544Z,102491.53
2023-01-03T10:46:04.585Z,102492.34
2023-01-03T10:51:47.919Z,102498.25
2023-01-03T10:54:17.788Z,102488.78
2023-01-03T10:56:46.894Z,102490.34
2023-01-03T10:59:23.330Z,102495.59
2023-01-03T11:01:56.281Z,102483.44
2023-01-03T11:04:24.643Z,102485.50
2023-01-03T11:07:11.620Z,102487.88
2023-01-03T11:09:57.010Z,102488.00
2023-01-03T11:12:34.180Z,102482.94
2023-01-03T11:15:05.669Z,102482.84
2023-01-03T11:17:33.700Z,102479.56
2023-01-03T11:20:00.984Z,102476.59
2023-01-03T11:22:35.516Z,102469.72
2023-01-03T11:25:12.557Z,102473.53
2023-01-03T11:27:48.567Z,102471.03
2023-01-03T11:30:18.501Z,102464.25
2023-01-03T11:32:53.963Z,102459.97
2023-01-03T11:35:39.027Z,102468.19
2023-01-03T11:38:40.788Z,102462.25
2023-01-03T11:41:36.810Z,102456.16
2023-01-03T11:44:49.877Z,102429.69
2023-01-03T11:47:24.856Z,102444.47
2023-01-03T11:50:00.671Z,102442.88
2023-01-03T11:53:08.088Z,102438.69
2023-01-03T11:55:57.607Z,102423.63
2023-01-03T11:58:46.282Z,102422.84
2023-01-03T12:01:39.256Z,102430.81
2023-01-03T12:04:25.958Z,102419.75
2023-01-03T12:07:47.200Z,102409.94
2023-01-03T12:10:17.374Z,102408.16
2023-01-03T12:13:04.079Z,102398.00
2023-01-03T12:15:50.149Z,102400.31
2023-01-03T12:18:27.608Z,102398.72
2023-01-03T12:20:59.712Z,102401.94
2023-01-03T12:23:40.035Z,102409.66
2023-01-03T12:26:14.207Z,102410.38
2023-01-03T12:29:01.679Z,102412.56
2023-01-03T12:31:52.262Z,102403.72
2023-01-03T12:34:58.146Z,102406.56
2023-01-03T12:37:39.312Z,102407.34
2023-01-03T12:40:18.297Z,102399.63
2023-01-03T12:43:04.903Z,102403.25
2023-01-03T12:45:42.546Z,102394.81
2023-01-03T12:48:28.321Z,102395.28
2023-01-03T12:50:56.112Z,102372.72
2023-01-03T12:53:38.798Z,102380.63
2023-01-03T12:56:11.408Z,102376.53
2023-01-03T12:59:09.276Z,102382.41
2023-01-03T13:01:54.047Z,102387.72
2023-01-03T13:04:41.418Z,102387.72
2023-01-03T13:07:29.508Z,102384.28
2023-01-03T13:10:02.077Z,102385.34
2023-01-03T13:12:31.482Z,102389.50
2023-01-03T13:15:36.692Z,102389.69
2023-01-03T13:18:22.840Z,102385.53
2023-01-03T13:20:54.282Z,102384.53
2023-01-03T13:23:21.230Z,102381.69
2023-01-03T13:26:06.669Z,102382.41
2023-01-03T13:28:36.687Z,102379.66
2023-01-03T13:31:18.879Z,102376.34
2023-01-03T13:33:48.896Z,102370.41
2023-01-03T13:36:15.932Z,102368.75
2023-01-03T13:38:42.999Z,102359.25
2023-01-03T13:41:37.338Z,102368.09
2023-01-03T13:44:24.020Z,102370.88
2023-01-03T13:46:51.629Z,102376.09
2023-01-03T13:49:25.080Z,102374.41
2023-01-03T13:51:57.201Z,102373.97
2023-01-03T13:54:36.624Z,102369.69
2023-01-03T13:57:25.905Z,102359.47
2023-01-03T13:59:53.319Z,102352.53
2023-01-03T14:02:23.525Z,102353.84
2023-01-03T14:05:15.258Z,102354.66
2023-01-03T14:08:00.043Z,102361.50
2023-01-03T14:10:40.940Z,102341.44
2023-01-03T14:13:38.835Z,102347.91
2023-01-03T14:16:43.032Z,102349.63
2023-01-03T14:19:22.998Z,102346.84
2023-01-03T14:22:14.233Z,102355.38
2023-01-03T14:24:52.596Z,102354.25
2023-01-03T14:27:23.019Z,102354.16
2023-01-03T14:29:53.995Z,102361.09
2023-01-03T14:32:35.217Z,102360.72
2023-01-03T14:35:03.327Z,102358.25
2023-01-03T14:37:33.254Z,102353.09
2023-01-03T14:40:07.786Z,102343.25
2023-01-03T14:42:34.773Z,102344.13
2023-01-03T14:45:04.633Z,102338.00
2023-01-03T14:47:39.244Z,102346.53
2023-01-03T14:50:28.449Z,102339.44
2023-01-03T14:52:58.050Z,102343.16
2023-01-03T14:55:30.963Z,102342.44
2023-01-03T14:57:59.472Z,102338.91
2023-01-03T15:00:33.544Z,102318.66
2023-01-03T15:03:02.861Z,102338.47
2023-01-03T15:05:35.729Z,102325.25
2023-01-03T15:08:07.900Z,102329.34
2023-01-03T15:10:55.466Z,102325.78
2023-01-03T15:13:36.835Z,102332.53
2023-01-03T15:16:08.167Z,102339.28
2023-01-03T15:18:45.212Z,102336.72
2023-01-03T15:21:16.614Z,102322.25
2023-01-03T15:23:47.096Z,102322.88
2023-01-03T15:26:36.974Z,102331.66
2023-01-03T15:29:20.584Z,102326.25
2023-01-03T15:31:54.310Z,102326.84
2023-01-03T15:34:25.371Z,102331.00
2023-01-03T15:36:59.717Z,102336.59
2023-01-03T15:39:37.828Z,102337.41
2023-01-03T15:42:50.314Z,102315.38
2023-01-03T15:45:27.490Z,102327.94
2023-01-03T15:47:57.859Z,102322.00
2023-01-03T15:50:37.744Z,102331.56
2023-01-03T15:53:04.805Z,102323.06
2023-01-03T15:55:32.312Z,102328.28
2023-01-03T15:57:59.418Z,102327.47
2023-01-03T16:00:26.518Z,102306.13
2023-01-03T16:02:54.378Z,102317.63
2023-01-03T16:05:22.922Z,102308.13
2023-01-03T16:07:51.150Z,102307.69
2023-01-03T16:10:18.370Z,102300.59
2023-01-03T16:12:45.543Z,102311.06
2023-01-03T16:15:20.314Z,102300.97
2023-01-03T16:17:48.748Z,102291.28
2023-01-03T16:20:18.311Z,102295.72
2023-01-03T16:22:59.681Z,102297.56
2023-01-03T16:25:28.127Z,102303.34
2023-01-03T16:27:55.286Z,102301.56
2023-01-03T16:30:24.556Z,102307.69
2023-01-03T16:32:51.959Z,102310.28
2023-01-03T16:35:20.417Z,102297.34
2023-01-03T16:37:47.458Z,102290.47
2023-01-03T16:40:17.379Z,102273.91
2023-01-03T16:42:44.496Z,102290.56
2023-01-03T16:45:11.796Z,102292.25
2023-01-03T16:47:39.330Z,102272.22
2023-01-03T16:50:12.979Z,102274.06
2023-01-03T16:52:44.135Z,102259.09
2023-01-03T16:55:22.027Z,102265.56
2023-01-03T16:57:54.274Z,102273.19
2023-01-03T17:00:28.132Z,102261.75
2023-01-03T17:02:56.326Z,102268.31
2023-01-03T17:05:23.751Z,102271.75
2023-01-03T17:07:53.659Z,102267.41
2023-01-03T17:10:33.774Z,102265.75
2023-01-03T17:13:08.379Z,102255.19
2023-01-03T17:15:40.225Z,102255.09
2023-01-03T17:18:19.069Z,102257.91
2023-01-03T17:20:51.964Z,102262.97
2023-01-03T17:23:19.401Z,102245.97
2023-01-03T17:25:46.474Z,102242.59
2023-01-03T17:28:13.689Z,102246.31
2023-01-03T17:30:40.766Z,102227.75
2023-01-03T17:33:14.737Z,102236.91
2023-01-03T17:35:44.498Z,102237.97
2023-01-03T17:38:31.854Z,102234.56
2023-01-03T17:40:58.910Z,102234.50
2023-01-03T17:43:25.987Z,102230.16
2023-01-03T17:46:20.719Z,102230.41
2023-01-03T17:49:09.104Z,102230.66
2023-01-03T17:51:36.737Z,102229.63
2023-01-03T17:54:03.946Z,102226.31
2023-01-03T17:56:31.287Z,102234.03
2023-01-03T17:58:58.320Z,102218.44
2023-01-03T18:01:25.506Z,102211.34
2023-01-03T18:03:53.302Z,102210.47
2023-01-03T18:06:24.457Z,102223.13
2023-01-03T18:08:53.434Z,102209.03
2023-01-03T18:11:25.009Z,102219.84
2023-01-03T18:13:52.435Z,102208.50
2023-01-03T18:16:21.734Z,102200.06
2023-01-03T18:18:48.973Z,102201.72
2023-01-03T18:21:22.947Z,102188.63
2023-01-03T18:23:57.536Z,102207.13
2023-01-03T18:26:32.038Z,102201.72
2023-01-03T18:28:59.235Z,102194.09
2023-01-03T18:31:26.489Z,102182.56
2023-01-03T18:33:54.096Z,102185.59
2023-01-03T18:36:37.001Z,102178.66
2023-01-03T18:39:13.996Z,102175.44
2023-01-03T18:41:41.801Z,102159.50
2023-01-03T18:44:35.004Z,102172.00
2023-01-03T18:47:02.517Z,102167.25
2023-01-03T18:49:29.526Z,102161.06
2023-01-03T18:51:58.143Z,102168.88
2023-01-03T18:54:25.276Z,102157.75
2023-01-03T18:56:52.695Z,102159.91
2023-01-03T18:59:24.191Z,102134.84
2023-01-03T19:01:51.960Z,102154.56
2023-01-03T19:04:19.556Z,102157.47
2023-01-03T19:06:49.449Z,102144.84
2023-01-03T19:09:25.813Z,102134.38
2023-01-03T19:11:54.246Z,102137.84
2023-01-03T19:14:21.279Z,102158.03
2023-01-03T19:16:48.354Z,102152.97
2023-01-03T19:19:15.415Z,102113.78
2023-01-03T19:21:47.000Z,102137.50
2023-01-03T19:24:38.919Z,102154.03
2023-01-03T19:27:17.724Z,102133.28
2023-01-03T19:29:45.115Z,102102.06
2023-01-03T19:32:19.088Z,102120.78
2023-01-03T19:34:46.149Z,102101.47
2023-01-03T19:37:13.173Z,102093.13
2023-01-03T19:39:40.201Z,102094.91
2023-01-03T19:42:34.977Z,102108.63
2023-01-03T19:45:08.034Z,102088.84
2023-01-03T19:47:35.094Z,102087.66
2023-01-03T19:50:16.370Z,102087.72
2023-01-03T19:52:43.424Z,102073.50
2023-01-03T19:55:12.007Z,102059.97
2023-01-03T19:57:40.911Z,102052.16
2023-01-03T20:00:18.173Z,102057.56
2023-01-03T20:02:46.550Z,102054.19
2023-01-03T20:05:26.524Z,102050.72
2023-01-03T20:07:53.620Z,102054.66
2023-01-03T20:10:25.474Z,102056.44
2023-01-03T20:12:55.362Z,102054.50
2023-01-03T20:15:28.471Z,102060.38
2023-01-03T20:17:56.338Z,102060.31
2023-01-03T20:20:30.745Z,102047.34
2023-01-03T20:23:07.157Z,102036.66
2023-01-03T20:25:37.684Z,102047.44
2023-01-03T20:28:06.690Z,102043.88
2023-01-03T20:30:34.404Z,102008.97
2023-01-03T20:33:01.683Z,102019.94
2023-01-03T20:38:24.787Z,102001.50
2023-01-03T20:40:55.984Z,102014.78
2023-01-03T20:43:24.332Z,102006.09
2023-01-03T20:45:55.978Z,102004.47
2023-01-03T20:48:26.202Z,102003.69
2023-01-03T20:50:54.611Z,102003.69
2023-01-03T20:53:25.938Z,102001.09
2023-01-03T20:55:54.367Z,102002.28
2023-01-03T20:58:27.781Z,101998.91
2023-01-03T21:01:01.986Z,101992.78
2023-01-03T21:03:32.128Z,101993.69
2023-01-03T21:05:59.400Z,101970.06
2023-01-03T21:08:45.180Z,101982.41
2023-01-03T21:11:12.358Z,101961.69
2023-01-03T21:13:39.520Z,101971.16
2023-01-03T21:16:39.391Z,101967.16
2023-01-03T21:19:12.549Z,101965.50
2023-01-03T21:21:40.602Z,101962.00
2023-01-03T21:24:13.026Z,101963.09
2023-01-03T21:26:40.664Z,101955.63
2023-01-03T21:29:08.500Z,101937.44
2023-01-03T21:31:36.885Z,101930.75
2023-01-03T21:34:07.902Z,101928.34
2023-01-03T21:36:36.914Z,101915.28
2023-01-03T21:39:04.654Z,101921.47
2023-01-03T21:41:34.047Z,101902.41
2023-01-03T21:44:03.859Z,101905.97
2023-01-03T21:46:31.021Z,101893.59
2023-01-03T21:48:58.300Z,101892.84
2023-01-03T21:51:35.464Z,101888.09
2023-01-03T21:54:09.458Z,101890.97
2023-01-03T21:56:45.136Z,101890.16
2023-01-03T21:59:16.369Z,101891.84
2023-01-03T22:02:03.823Z,101875.28
2023-01-03T22:04:32.148Z,101881.47
2023-01-03T22:07:00.618Z,101878.75
2023-01-03T22:09:48.169Z,101869.13
2023-01-03T22:12:16.577Z,101874.63
2023-01-03T22:14:45.130Z,101848.75
2023-01-03T22:17:12.307Z,101868.38
2023-01-03T22:19:39.356Z,101843.13
2023-01-03T22:22:07.010Z,101874.66
2023-01-03T22:24:34.059Z,101859.31
2023-01-03T22:27:01.552Z,101857.72
2023-01-03T22:29:28.626Z,101854.31
2023-01-03T22:31:55.740Z,101857.13
2023-01-03T22:34:22.856Z,101850.53
2023-01-03T22:36:50.261Z,101851.88
2023-01-03T22:39:17.299Z,101836.34
2023-01-03T22:41:44.352Z,101847.47
2023-01-03T22:44:11.374Z,101836.00
2023-01-03T22:46:39.424Z,101828.13
2023-01-03T22:49:07.876Z,101824.16
2023-01-03T22:51:34.862Z,101817.34
2023-01-03T22:54:01.903Z,101819.56
2023-01-03T22:56:29.313Z,101827.34
2023-01-03T22:58:56.374Z,101817.19
2023-01-03T23:01:27.476Z,101804.03
2023-01-03T23:04:00.263Z,101806.09
2023-01-03T23:06:29.269Z,101807.09
2023-01-03T23:08:56.929Z,101770.53
2023-01-03T23:11:45.151Z,101787.09
2023-01-03T23:14:14.954Z,101780.44
2023-01-03T23:16:42.301Z,101773.47
2023-01-03T23:19:15.439Z,101756.88
2023-01-03T23:21:45.270Z,101763.91
2023-01-03T23:24:17.389Z,101760.16
2023-01-03T23:26:45.062Z,101753.88
2023-01-03T23:29:14.172Z,101750.47
2023-01-03T23:31:42.210Z,101731.44
2023-01-03T23:34:10.836Z,101737.44
2023-01-03T23:36:38.319Z,101727.13
2023-01-03T23:39:06.478Z,101712.50
2023-01-03T23:41:34.455Z,101712.56
2023-01-03T23:44:01.678Z,101702.06
2023-01-03T23:46:28.794Z,101685.66
2023-01-03T23:48:56.874Z,101671.81
2023-01-03T23:51:25.492Z,101680.25
2023-01-03T23:53:53.622Z,101675.22
2023-01-03T23:56:24.092Z,101682.13
2023-01-03T23:58:52.213Z,101666.56
